sensor_id;sensor_type;location;lat;lon;timestamp;pressure;altitude;pressure_sealevel;temperature;humidity
11648;BME280;5880;52.342;9.662;2022-08-19T00:01:57;100675.44;;;26.04;47.93
11648;BME280;5880;52.342;9.662;2022-08-19T00:04:32;100680.53;;;26.02;48.02
11648;BME280;5880;52.342;9.662;2022-08-19T00:07:00;100669.38;;;25.94;48.03
11648;BME280;5880;52.342;9.662;2022-08-19T00:09:27;100682.38;;;25.98;48.07
11648;BME280;5880;52.342;9.662;2022-08-19T00:11:56;100667.75;;;25.93;48.23
11648;BME280;5880;52.342;9.662;2022-08-19T00:14:25;100672.53;;;25.92;48.19
11648;BME280;5880;52.342;9.662;2022-08-19T00:16:53;100675.97;;;25.89;48.00
11648;BME280;5880;52.342;9.662;2022-08-19T00:19:21;100679.94;;;25.88;48.29
11648;BME280;5880;52.342;9.662;2022-08-19T00:21:47;100675.00;;;25.85;48.08
11648;BME280;5880;52.342;9.662;2022-08-19T00:24:15;100671.69;;;25.83;48.45
11648;BME280;5880;52.342;9.662;2022-08-19T00:26:43;100660.34;;;25.79;48.37
11648;BME280;5880;52.342;9.662;2022-08-19T00:29:14;100656.22;;;25.77;48.24
11648;BME280;5880;52.342;9.662;2022-08-19T00:31:41;100638.63;;;25.67;48.29
11648;BME280;5880;52.342;9.662;2022-08-19T00:34:09;100627.63;;;25.62;48.26
11648;BME280;5880;52.342;9.662;2022-08-19T00:36:35;100624.22;;;25.57;48.63
11648;BME280;5880;52.342;9.662;2022-08-19T00:39:03;100625.34;;;25.56;48.65
11648;BME280;5880;52.342;9.662;2022-08-19T00:41:29;100629.47;;;25.49;48.55
11648;BME280;5880;52.342;9.662;2022-08-19T00:44:11;100634.75;;;25.51;48.45
11648;BME280;5880;52.342;9.662;2022-08-19T00:46:41;100641.34;;;25.46;48.82
11648;BME280;5880;52.342;9.662;2022-08-19T00:49:43;100631.50;;;25.40;48.38
11648;BME280;5880;52.342;9.662;2022-08-19T00:52:28;100634.59;;;25.39;48.61
11648;BME280;5880;52.342;9.662;2022-08-19T00:54:57;100626.53;;;25.37;48.65
11648;BME280;5880;52.342;9.662;2022-08-19T00:57:38;100631.00;;;25.38;48.78
11648;BME280;5880;52.342;9.662;2022-08-19T01:00:14;100623.25;;;25.35;48.48
11648;BME280;5880;52.342;9.662;2022-08-19T01:02:42;100613.53;;;25.33;49.04
11648;BME280;5880;52.342;9.662;2022-08-19T01:05:14;100594.66;;;25.30;48.66
11648;BME280;5880;52.342;9.662;2022-08-19T01:07:42;100601.72;;;25.27;48.83
11648;BME280;5880;52.342;9.662;2022-08-19T01:10:13;100597.44;;;25.21;49.01
11648;BME280;5880;52.342;9.662;2022-08-19T01:12:40;100603.72;;;25.18;49.21
11648;BME280;5880;52.342;9.662;2022-08-19T01:15:11;100595.63;;;25.16;49.10
11648;BME280;5880;52.342;9.662;2022-08-19T01:17:39;100606.66;;;25.13;49.21
11648;BME280;5880;52.342;9.662;2022-08-19T01:20:10;100606.97;;;25.11;49.09
11648;BME280;5880;52.342;9.662;2022-08-19T01:22:50;100605.34;;;25.10;49.07
11648;BME280;5880;52.342;9.662;2022-08-19T01:25:26;100611.75;;;25.11;49.34
11648;BME280;5880;52.342;9.662;2022-08-19T01:27:54;100600.88;;;25.09;49.06
11648;BME280;5880;52.342;9.662;2022-08-19T01:30:30;100604.19;;;25.11;49.41
11648;BME280;5880;52.342;9.662;2022-08-19T01:32:57;100597.78;;;25.11;49.37
11648;BME280;5880;52.342;9.662;2022-08-19T01:35:29;100600.06;;;25.09;49.07
11648;BME280;5880;52.342;9.662;2022-08-19T01:38:07;100607.97;;;25.06;49.05
11648;BME280;5880;52.342;9.662;2022-08-19T01:40:37;100603.06;;;25.03;49.26
11648;BME280;5880;52.342;9.662;2022-08-19T01:43:05;100597.47;;;25.03;49.31
11648;BME280;5880;52.342;9.662;2022-08-19T01:45:34;100586.44;;;24.98;49.42
11648;BME280;5880;52.342;9.662;2022-08-19T01:48:00;100588.56;;;25.01;49.74
11648;BME280;5880;52.342;9.662;2022-08-19T01:50:27;100579.53;;;24.96;49.60
11648;BME280;5880;52.342;9.662;2022-08-19T01:52:53;100589.06;;;25.03;49.49
11648;BME280;5880;52.342;9.662;2022-08-19T01:55:21;100577.06;;;25.03;49.81
11648;BME280;5880;52.342;9.662;2022-08-19T01:57:54;100574.09;;;24.99;49.54
11648;BME280;5880;52.342;9.662;2022-08-19T02:00:25;100572.63;;;25.02;49.72
11648;BME280;5880;52.342;9.662;2022-08-19T02:02:51;100578.53;;;25.00;49.82
11648;BME280;5880;52.342;9.662;2022-08-19T02:05:17;100579.03;;;25.02;49.72
11648;BME280;5880;52.342;9.662;2022-08-19T02:07:44;100573.78;;;25.01;49.76
11648;BME280;5880;52.342;9.662;2022-08-19T02:10:19;100578.22;;;25.02;50.07
11648;BME280;5880;52.342;9.662;2022-08-19T02:12:46;100575.59;;;24.97;50.14
11648;BME280;5880;52.342;9.662;2022-08-19T02:15:12;100579.53;;;24.96;49.88
11648;BME280;5880;52.342;9.662;2022-08-19T02:17:38;100587.75;;;25.01;49.90
11648;BME280;5880;52.342;9.662;2022-08-19T02:20:05;100583.97;;;24.97;50.15
11648;BME280;5880;52.342;9.662;2022-08-19T02:22:32;100582.81;;;24.98;50.11
11648;BME280;5880;52.342;9.662;2022-08-19T02:24:58;100571.66;;;24.89;49.91
11648;BME280;5880;52.342;9.662;2022-08-19T02:27:23;100574.94;;;24.91;50.32
11648;BME280;5880;52.342;9.662;2022-08-19T02:29:51;100584.78;;;24.97;50.08
11648;BME280;5880;52.342;9.662;2022-08-19T02:32:18;100584.66;;;24.94;49.97
11648;BME280;5880;52.342;9.662;2022-08-19T02:34:46;100583.97;;;24.97;50.01
11648;BME280;5880;52.342;9.662;2022-08-19T02:37:12;100578.38;;;24.97;50.26
11648;BME280;5880;52.342;9.662;2022-08-19T02:39:57;100572.31;;;24.95;50.07
11648;BME280;5880;52.342;9.662;2022-08-19T02:42:23;100575.59;;;24.97;50.56
11648;BME280;5880;52.342;9.662;2022-08-19T02:44:48;100575.09;;;24.95;50.20
11648;BME280;5880;52.342;9.662;2022-08-19T02:47:14;100569.00;;;24.93;50.36
11648;BME280;5880;52.342;9.662;2022-08-19T02:49:40;100573.59;;;24.97;50.15
11648;BME280;5880;52.342;9.662;2022-08-19T02:52:06;100580.84;;;24.98;50.19
11648;BME280;5880;52.342;9.662;2022-08-19T02:54:32;100580.69;;;24.95;50.53
11648;BME280;5880;52.342;9.662;2022-08-19T02:56:58;100577.41;;;24.93;50.19
11648;BME280;5880;52.342;9.662;2022-08-19T02:59:24;100580.69;;;24.95;50.49
11648;BME280;5880;52.342;9.662;2022-08-19T03:01:52;100581.34;;;24.92;50.29
11648;BME280;5880;52.342;9.662;2022-08-19T03:04:18;100568.19;;;24.92;50.64
11648;BME280;5880;52.342;9.662;2022-08-19T03:06:47;100572.97;;;24.92;50.45
11648;BME280;5880;52.342;9.662;2022-08-19T03:09:14;100567.69;;;24.90;50.18
11648;BME280;5880;52.342;9.662;2022-08-19T03:11:40;100576.75;;;24.87;50.60
11648;BME280;5880;52.342;9.662;2022-08-19T03:14:08;100579.56;;;24.87;50.34
11648;BME280;5880;52.342;9.662;2022-08-19T03:16:46;100583.47;;;24.86;50.56
11648;BME280;5880;52.342;9.662;2022-08-19T03:19:13;100587.75;;;24.83;50.67
11648;BME280;5880;52.342;9.662;2022-08-19T03:21:39;100590.91;;;24.82;50.30
11648;BME280;5880;52.342;9.662;2022-08-19T03:24:08;100591.72;;;24.82;50.30
11648;BME280;5880;52.342;9.662;2022-08-19T03:26:37;100587.44;;;24.76;50.37
11648;BME280;5880;52.342;9.662;2022-08-19T03:29:04;100586.13;;;24.74;50.35
11648;BME280;5880;52.342;9.662;2022-08-19T03:31:30;100586.44;;;24.72;50.40
11648;BME280;5880;52.342;9.662;2022-08-19T03:33:56;100586.59;;;24.67;50.38
11648;BME280;5880;52.342;9.662;2022-08-19T03:36:25;100586.78;;;24.71;50.70
11648;BME280;5880;52.342;9.662;2022-08-19T03:38:59;100592.69;;;24.69;50.61
11648;BME280;5880;52.342;9.662;2022-08-19T03:41:31;100586.09;;;24.65;50.41
11648;BME280;5880;52.342;9.662;2022-08-19T03:43:58;100596.63;;;24.59;50.78
11648;BME280;5880;52.342;9.662;2022-08-19T03:46:28;100603.03;;;24.60;50.59
11648;BME280;5880;52.342;9.662;2022-08-19T03:48:58;100605.34;;;24.58;50.81
11648;BME280;5880;52.342;9.662;2022-08-19T03:51:32;100612.91;;;24.57;50.71
11648;BME280;5880;52.342;9.662;2022-08-19T03:54:02;100618.34;;;24.54;50.66
11648;BME280;5880;52.342;9.662;2022-08-19T03:56:29;100622.25;;;24.53;50.76
11648;BME280;5880;52.342;9.662;2022-08-19T03:58:57;100610.09;;;24.49;50.68
11648;BME280;5880;52.342;9.662;2022-08-19T04:01:28;100612.56;;;24.50;50.55
11648;BME280;5880;52.342;9.662;2022-08-19T04:03:56;100610.59;;;24.51;50.84
11648;BME280;5880;52.342;9.662;2022-08-19T04:06:32;100610.09;;;24.49;50.58
11648;BME280;5880;52.342;9.662;2022-08-19T04:09:01;100615.81;;;24.43;50.94
11648;BME280;5880;52.342;9.662;2022-08-19T04:11:34;100617.97;;;24.47;50.91
11648;BME280;5880;52.342;9.662;2022-08-19T04:14:01;100617.47;;;24.44;50.97
11648;BME280;5880;52.342;9.662;2022-08-19T04:16:28;100617.78;;;24.43;50.63
11648;BME280;5880;52.342;9.662;2022-08-19T04:18:56;100631.44;;;24.44;50.86
11648;BME280;5880;52.342;9.662;2022-08-19T04:21:25;100626.16;;;24.43;50.99
11648;BME280;5880;52.342;9.662;2022-08-19T04:23:52;100628.66;;;24.44;50.77
11648;BME280;5880;52.342;9.662;2022-08-19T04:26:22;100621.06;;;24.45;50.67
11648;BME280;5880;52.342;9.662;2022-08-19T04:28:49;100609.22;;;24.39;50.59
11648;BME280;5880;52.342;9.662;2022-08-19T04:31:22;100613.81;;;24.44;50.83
11648;BME280;5880;52.342;9.662;2022-08-19T04:33:48;100609.22;;;24.39;50.75
11648;BME280;5880;52.342;9.662;2022-08-19T04:36:21;100601.84;;;24.43;50.78
11648;BME280;5880;52.342;9.662;2022-08-19T04:38:49;100602.19;;;24.42;50.91
11648;BME280;5880;52.342;9.662;2022-08-19T04:41:15;100598.72;;;24.36;50.93
11648;BME280;5880;52.342;9.662;2022-08-19T04:44:00;100607.91;;;24.37;50.78
11648;BME280;5880;52.342;9.662;2022-08-19T04:46:25;100608.41;;;24.39;51.10
11648;BME280;5880;52.342;9.662;2022-08-19T04:48:51;100611.53;;;24.37;50.81
11648;BME280;5880;52.342;9.662;2022-08-19T04:51:18;100606.09;;;24.32;50.87
11648;BME280;5880;52.342;9.662;2022-08-19T04:53:46;100619.72;;;24.34;50.88
11648;BME280;5880;52.342;9.662;2022-08-19T04:56:14;100615.44;;;24.28;51.08
11648;BME280;5880;52.342;9.662;2022-08-19T04:58:43;100617.91;;;24.29;51.10
11648;BME280;5880;52.342;9.662;2022-08-19T05:01:24;100624.81;;;24.32;51.26
11648;BME280;5880;52.342;9.662;2022-08-19T05:03:51;100629.91;;;24.30;51.20
11648;BME280;5880;52.342;9.662;2022-08-19T05:06:20;100623.00;;;24.27;51.08
11648;BME280;5880;52.342;9.662;2022-08-19T05:08:47;100638.63;;;24.28;50.79
11648;BME280;5880;52.342;9.662;2022-08-19T05:11:18;100634.69;;;24.29;50.98
11648;BME280;5880;52.342;9.662;2022-08-19T05:13:46;100634.97;;;24.28;51.23
11648;BME280;5880;52.342;9.662;2022-08-19T05:16:13;100620.38;;;24.22;51.42
11648;BME280;5880;52.342;9.662;2022-08-19T05:18:40;100631.06;;;24.29;51.39
11648;BME280;5880;52.342;9.662;2022-08-19T05:21:25;100626.97;;;24.26;51.23
11648;BME280;5880;52.342;9.662;2022-08-19T05:24:11;100618.56;;;24.26;51.25
11648;BME280;5880;52.342;9.662;2022-08-19T05:26:41;100609.19;;;24.22;51.34
11648;BME280;5880;52.342;9.662;2022-08-19T05:29:08;100612.66;;;24.19;51.22
11648;BME280;5880;52.342;9.662;2022-08-19T05:31:36;100608.38;;;24.21;51.42
11648;BME280;5880;52.342;9.662;2022-08-19T05:34:02;100615.75;;;24.17;51.32
11648;BME280;5880;52.342;9.662;2022-08-19T05:36:36;100618.84;;;24.16;51.49
11648;BME280;5880;52.342;9.662;2022-08-19T05:39:03;100623.13;;;24.13;51.63
11648;BME280;5880;52.342;9.662;2022-08-19T05:41:29;100610.47;;;24.07;51.21
11648;BME280;5880;52.342;9.662;2022-08-19T05:43:58;100609.31;;;24.08;51.34
11648;BME280;5880;52.342;9.662;2022-08-19T05:46:24;100611.63;;;24.06;51.63
11648;BME280;5880;52.342;9.662;2022-08-19T05:48:50;100616.06;;;24.07;51.41
11648;BME280;5880;52.342;9.662;2022-08-19T05:51:16;100596.81;;;23.97;51.77
11648;BME280;5880;52.342;9.662;2022-08-19T05:53:42;100609.97;;;24.05;51.74
11648;BME280;5880;52.342;9.662;2022-08-19T05:56:13;100602.94;;;24.08;51.84
11648;BME280;5880;52.342;9.662;2022-08-19T05:58:42;100610.97;;;24.09;51.79
11648;BME280;5880;52.342;9.662;2022-08-19T06:01:16;100615.41;;;24.10;51.86
11648;BME280;5880;52.342;9.662;2022-08-19T06:03:43;100617.38;;;24.10;51.77
11648;BME280;5880;52.342;9.662;2022-08-19T06:06:13;100612.25;;;24.03;51.65
11648;BME280;5880;52.342;9.662;2022-08-19T06:08:39;100626.06;;;24.08;51.85
11648;BME280;5880;52.342;9.662;2022-08-19T06:11:23;100632.47;;;24.09;51.73
11648;BME280;5880;52.342;9.662;2022-08-19T06:13:53;100640.03;;;24.08;51.86
11648;BME280;5880;52.342;9.662;2022-08-19T06:16:20;100637.56;;;24.07;51.82
11648;BME280;5880;52.342;9.662;2022-08-19T06:18:49;100633.94;;;24.06;51.93
11648;BME280;5880;52.342;9.662;2022-08-19T06:21:21;100638.91;;;24.09;51.99
11648;BME280;5880;52.342;9.662;2022-08-19T06:23:48;100639.88;;;24.13;52.15
11648;BME280;5880;52.342;9.662;2022-08-19T06:26:15;100633.94;;;24.06;51.80
11648;BME280;5880;52.342;9.662;2022-08-19T06:28:42;100638.41;;;24.07;51.88
11648;BME280;5880;52.342;9.662;2022-08-19T06:31:18;100648.25;;;24.13;51.77
11648;BME280;5880;52.342;9.662;2022-08-19T06:33:46;100650.22;;;24.13;51.85
11648;BME280;5880;52.342;9.662;2022-08-19T06:36:29;100651.53;;;24.15;51.95
11648;BME280;5880;52.342;9.662;2022-08-19T06:39:13;100649.41;;;24.12;51.87
11648;BME280;5880;52.342;9.662;2022-08-19T06:41:46;100654.50;;;24.10;52.11
11648;BME280;5880;52.342;9.662;2022-08-19T06:44:13;100657.78;;;24.12;52.35
11648;BME280;5880;52.342;9.662;2022-08-19T06:46:40;100668.94;;;24.12;52.06
11648;BME280;5880;52.342;9.662;2022-08-19T06:49:07;100663.03;;;24.14;52.07
11648;BME280;5880;52.342;9.662;2022-08-19T06:51:35;100666.97;;;24.13;52.16
11648;BME280;5880;52.342;9.662;2022-08-19T06:54:02;100674.69;;;24.16;52.18
11648;BME280;5880;52.342;9.662;2022-08-19T06:56:30;100678.50;;;24.20;52.00
11648;BME280;5880;52.342;9.662;2022-08-19T06:59:05;100672.09;;;24.19;52.16
11648;BME280;5880;52.342;9.662;2022-08-19T07:01:37;100676.41;;;24.26;52.31
11648;BME280;5880;52.342;9.662;2022-08-19T07:04:08;100675.56;;;24.25;52.43
11648;BME280;5880;52.342;9.662;2022-08-19T07:06:36;100687.91;;;24.33;52.66
11648;BME280;5880;52.342;9.662;2022-08-19T07:09:08;100696.97;;;24.38;52.57
11648;BME280;5880;52.342;9.662;2022-08-19T07:11:34;100694.34;;;24.42;52.37
11648;BME280;5880;52.342;9.662;2022-08-19T07:14:01;100675.78;;;24.46;52.43
11648;BME280;5880;52.342;9.662;2022-08-19T07:16:27;100679.94;;;24.49;52.55
11648;BME280;5880;52.342;9.662;2022-08-19T07:18:53;100694.22;;;24.56;52.26
11648;BME280;5880;52.342;9.662;2022-08-19T07:21:27;100704.78;;;24.59;51.97
11648;BME280;5880;52.342;9.662;2022-08-19T07:23:58;100715.63;;;24.60;52.29
11648;BME280;5880;52.342;9.662;2022-08-19T07:26:29;100703.31;;;24.61;52.13
11648;BME280;5880;52.342;9.662;2022-08-19T07:28:56;100703.31;;;24.61;51.95
11648;BME280;5880;52.342;9.662;2022-08-19T07:31:25;100705.13;;;24.66;51.82
11648;BME280;5880;52.342;9.662;2022-08-19T07:33:54;100716.47;;;24.70;52.13
11648;BME280;5880;52.342;9.662;2022-08-19T07:36:25;100722.72;;;24.75;51.86
11648;BME280;5880;52.342;9.662;2022-08-19T07:38:51;100726.34;;;24.76;51.86
11648;BME280;5880;52.342;9.662;2022-08-19T07:41:24;100727.66;;;24.78;51.55
11648;BME280;5880;52.342;9.662;2022-08-19T07:43:50;100732.94;;;24.80;51.74
11648;BME280;5880;52.342;9.662;2022-08-19T07:46:18;100743.63;;;24.87;51.70
11648;BME280;5880;52.342;9.662;2022-08-19T07:48:48;100753.34;;;24.89;51.40
11648;BME280;5880;52.342;9.662;2022-08-19T07:51:18;100756.63;;;24.91;51.65
11648;BME280;5880;52.342;9.662;2022-08-19T07:53:45;100761.06;;;24.92;51.29
11648;BME280;5880;52.342;9.662;2022-08-19T07:56:13;100758.78;;;24.94;51.39
11648;BME280;5880;52.342;9.662;2022-08-19T07:58:43;100757.28;;;24.97;51.17
11648;BME280;5880;52.342;9.662;2022-08-19T08:01:20;100750.38;;;24.94;51.34
11648;BME280;5880;52.342;9.662;2022-08-19T08:03:50;100748.25;;;25.00;51.14
11648;BME280;5880;52.342;9.662;2022-08-19T08:06:36;100744.13;;;24.97;51.40
11648;BME280;5880;52.342;9.662;2022-08-19T08:09:30;100760.94;;;25.06;51.29
11648;BME280;5880;52.342;9.662;2022-08-19T08:12:10;100763.88;;;25.10;50.84
11648;BME280;5880;52.342;9.662;2022-08-19T08:14:45;100768.00;;;25.12;51.40
11648;BME280;5880;52.342;9.662;2022-08-19T08:17:13;100759.59;;;25.12;51.34
11648;BME280;5880;52.342;9.662;2022-08-19T08:19:40;100756.34;;;25.19;50.91
11648;BME280;5880;52.342;9.662;2022-08-19T08:22:14;100747.97;;;25.19;51.08
11648;BME280;5880;52.342;9.662;2022-08-19T08:25:03;100757.84;;;25.25;50.83
11648;BME280;5880;52.342;9.662;2022-08-19T08:27:29;100762.28;;;25.26;50.99
11648;BME280;5880;52.342;9.662;2022-08-19T08:29:57;100750.63;;;25.24;50.81
11648;BME280;5880;52.342;9.662;2022-08-19T08:32:23;100747.97;;;25.27;50.36
11648;BME280;5880;52.342;9.662;2022-08-19T08:34:48;100769.53;;;25.36;50.93
11648;BME280;5880;52.342;9.662;2022-08-19T08:37:14;100764.41;;;25.38;50.56
11648;BME280;5880;52.342;9.662;2022-08-19T08:39:40;100760.81;;;25.37;50.31
11648;BME280;5880;52.342;9.662;2022-08-19T08:42:19;100765.25;;;25.47;50.32
11648;BME280;5880;52.342;9.662;2022-08-19T08:45:03;100763.75;;;25.49;50.71
11648;BME280;5880;52.342;9.662;2022-08-19T08:47:37;100762.31;;;25.52;50.62
11648;BME280;5880;52.342;9.662;2022-08-19T08:50:13;100769.34;;;25.58;50.93
11648;BME280;5880;52.342;9.662;2022-08-19T08:52:46;100758.00;;;25.63;50.70
11648;BME280;5880;52.342;9.662;2022-08-19T08:55:21;100768.38;;;25.72;50.40
11648;BME280;5880;52.342;9.662;2022-08-19T09:00:27;100767.88;;;25.87;50.46
11648;BME280;5880;52.342;9.662;2022-08-19T09:02:56;100755.66;;;25.92;50.35
11648;BME280;5880;52.342;9.662;2022-08-19T09:05:45;100755.97;;;25.99;50.34
11648;BME280;5880;52.342;9.662;2022-08-19T09:08:36;100771.28;;;26.10;50.47
11648;BME280;5880;52.342;9.662;2022-08-19T09:11:10;100768.44;;;26.19;50.07
11648;BME280;5880;52.342;9.662;2022-08-19T09:13:59;100758.72;;;26.25;49.92
11648;BME280;5880;52.342;9.662;2022-08-19T09:16:27;100765.63;;;26.27;49.77
11648;BME280;5880;52.342;9.662;2022-08-19T09:19:03;100764.44;;;26.37;49.38
11648;BME280;5880;52.342;9.662;2022-08-19T09:21:29;100758.84;;;26.37;49.48
11648;BME280;5880;52.342;9.662;2022-08-19T09:23:54;100774.63;;;26.42;49.25
11648;BME280;5880;52.342;9.662;2022-08-19T09:26:22;100752.22;;;26.42;49.37
11648;BME280;5880;52.342;9.662;2022-08-19T09:28:51;100759.25;;;26.48;49.05
11648;BME280;5880;52.342;9.662;2022-08-19T09:31:22;100758.25;;;26.52;48.91
11648;BME280;5880;52.342;9.662;2022-08-19T09:33:50;100744.59;;;26.51;48.93
11648;BME280;5880;52.342;9.662;2022-08-19T09:36:20;100741.63;;;26.56;48.80
11648;BME280;5880;52.342;9.662;2022-08-19T09:38:48;100741.09;;;26.63;48.96
11648;BME280;5880;52.342;9.662;2022-08-19T09:41:18;100739.41;;;26.70;48.73
11648;BME280;5880;52.342;9.662;2022-08-19T09:43:47;100743.19;;;26.74;48.49
11648;BME280;5880;52.342;9.662;2022-08-19T09:46:14;100742.81;;;26.76;48.27
11648;BME280;5880;52.342;9.662;2022-08-19T09:48:42;100750.56;;;26.79;48.27
11648;BME280;5880;52.342;9.662;2022-08-19T09:51:13;100756.66;;;26.81;48.04
11648;BME280;5880;52.342;9.662;2022-08-19T09:53:45;100759.09;;;26.83;47.84
11648;BME280;5880;52.342;9.662;2022-08-19T09:56:12;100752.69;;;26.82;47.94
11648;BME280;5880;52.342;9.662;2022-08-19T09:58:39;100756.78;;;26.85;47.75
11648;BME280;5880;52.342;9.662;2022-08-19T10:01:07;100749.19;;;26.85;47.73
11648;BME280;5880;52.342;9.662;2022-08-19T10:03:35;100745.25;;;26.86;47.75
11648;BME280;5880;52.342;9.662;2022-08-19T10:06:04;100745.72;;;26.88;47.46
11648;BME280;5880;52.342;9.662;2022-08-19T10:08:35;100755.09;;;26.92;47.24
11648;BME280;5880;52.342;9.662;2022-08-19T10:11:01;100754.75;;;26.94;46.89
11648;BME280;5880;52.342;9.662;2022-08-19T10:13:30;100750.44;;;26.97;46.83
11648;BME280;5880;52.342;9.662;2022-08-19T10:16:05;100738.91;;;26.98;47.00
11648;BME280;5880;52.342;9.662;2022-08-19T10:18:32;100734.59;;;27.01;46.81
11648;BME280;5880;52.342;9.662;2022-08-19T10:21:19;100739.31;;;27.09;46.86
11648;BME280;5880;52.342;9.662;2022-08-19T10:23:49;100728.56;;;27.11;46.81
11648;BME280;5880;52.342;9.662;2022-08-19T10:26:29;100732.47;;;27.19;46.65
11648;BME280;5880;52.342;9.662;2022-08-19T10:28:56;100731.50;;;27.23;46.67
11648;BME280;5880;52.342;9.662;2022-08-19T10:31:28;100745.25;;;27.37;46.33
11648;BME280;5880;52.342;9.662;2022-08-19T10:33:55;100730.63;;;27.44;46.15
11648;BME280;5880;52.342;9.662;2022-08-19T10:36:28;100730.06;;;27.50;46.08
11648;BME280;5880;52.342;9.662;2022-08-19T10:38:57;100728.72;;;27.56;46.11
11648;BME280;5880;52.342;9.662;2022-08-19T10:41:28;100729.66;;;27.61;45.75
11648;BME280;5880;52.342;9.662;2022-08-19T10:43:58;100712.94;;;27.64;45.83
11648;BME280;5880;52.342;9.662;2022-08-19T10:46:26;100708.28;;;27.68;45.37
11648;BME280;5880;52.342;9.662;2022-08-19T10:48:53;100718.00;;;27.71;45.23
11648;BME280;5880;52.342;9.662;2022-08-19T10:51:21;100701.63;;;27.73;45.15
11648;BME280;5880;52.342;9.662;2022-08-19T10:54:05;100698.81;;;27.73;44.69
11648;BME280;5880;52.342;9.662;2022-08-19T10:56:34;100694.16;;;27.77;44.64
11648;BME280;5880;52.342;9.662;2022-08-19T10:59:26;100696.59;;;27.78;44.69
11648;BME280;5880;52.342;9.662;2022-08-19T11:02:04;100694.75;;;27.83;44.78
11648;BME280;5880;52.342;9.662;2022-08-19T11:04:30;100690.31;;;27.82;44.36
11648;BME280;5880;52.342;9.662;2022-08-19T11:06:57;100681.22;;;27.85;44.08
11648;BME280;5880;52.342;9.662;2022-08-19T11:09:25;100689.88;;;27.92;44.10
11648;BME280;5880;52.342;9.662;2022-08-19T11:11:52;100691.66;;;27.96;44.28
11648;BME280;5880;52.342;9.662;2022-08-19T11:14:20;100685.78;;;28.02;44.05
11648;BME280;5880;52.342;9.662;2022-08-19T11:16:48;100680.31;;;28.05;43.67
11648;BME280;5880;52.342;9.662;2022-08-19T11:19:15;100682.75;;;28.07;43.69
11648;BME280;5880;52.342;9.662;2022-08-19T11:21:47;100673.66;;;28.10;43.98
11648;BME280;5880;52.342;9.662;2022-08-19T11:24:21;100665.22;;;28.10;43.70
11648;BME280;5880;52.342;9.662;2022-08-19T11:26:49;100675.28;;;28.11;43.02
11648;BME280;5880;52.342;9.662;2022-08-19T11:29:18;100668.84;;;28.10;43.47
11648;BME280;5880;52.342;9.662;2022-08-19T11:31:47;100670.47;;;28.11;43.21
11648;BME280;5880;52.342;9.662;2022-08-19T11:34:18;100662.41;;;28.10;42.82
11648;BME280;5880;52.342;9.662;2022-08-19T11:36:46;100659.22;;;28.11;42.83
11648;BME280;5880;52.342;9.662;2022-08-19T11:39:16;100661.81;;;28.16;42.80
11648;BME280;5880;52.342;9.662;2022-08-19T11:41:42;100657.50;;;28.19;42.65
11648;BME280;5880;52.342;9.662;2022-08-19T11:44:08;100655.50;;;28.19;42.73
11648;BME280;5880;52.342;9.662;2022-08-19T11:46:36;100660.97;;;28.28;42.54
11648;BME280;5880;52.342;9.662;2022-08-19T11:49:04;100668.72;;;28.31;42.25
11648;BME280;5880;52.342;9.662;2022-08-19T11:51:31;100676.78;;;28.33;42.41
11648;BME280;5880;52.342;9.662;2022-08-19T11:53:59;100674.44;;;28.35;42.34
11648;BME280;5880;52.342;9.662;2022-08-19T11:56:27;100664.03;;;28.35;42.10
11648;BME280;5880;52.342;9.662;2022-08-19T11:58:54;100671.75;;;28.38;42.10
11648;BME280;5880;52.342;9.662;2022-08-19T12:01:24;100672.22;;;28.40;41.94
11648;BME280;5880;52.342;9.662;2022-08-19T12:03:53;100673.06;;;28.41;42.08
11648;BME280;5880;52.342;9.662;2022-08-19T12:06:28;100665.44;;;28.41;41.88
11648;BME280;5880;52.342;9.662;2022-08-19T12:08:56;100665.91;;;28.44;41.96
11648;BME280;5880;52.342;9.662;2022-08-19T12:11:22;100659.47;;;28.43;41.78
11648;BME280;5880;52.342;9.662;2022-08-19T12:13:49;100658.28;;;28.44;41.80
11648;BME280;5880;52.342;9.662;2022-08-19T12:16:25;100653.16;;;28.46;41.67
11648;BME280;5880;52.342;9.662;2022-08-19T12:18:53;100654.81;;;28.47;41.53
11648;BME280;5880;52.342;9.662;2022-08-19T12:21:23;100651.28;;;28.50;41.48
11648;BME280;5880;52.342;9.662;2022-08-19T12:23:51;100649.75;;;28.53;41.47
11648;BME280;5880;52.342;9.662;2022-08-19T12:26:17;100648.69;;;28.57;41.56
11648;BME280;5880;52.342;9.662;2022-08-19T12:28:43;100641.22;;;28.61;41.22
11648;BME280;5880;52.342;9.662;2022-08-19T12:31:10;100642.09;;;28.66;41.19
11648;BME280;5880;52.342;9.662;2022-08-19T12:33:40;100639.44;;;28.69;41.05
11648;BME280;5880;52.342;9.662;2022-08-19T12:36:10;100647.59;;;28.74;40.70
11648;BME280;5880;52.342;9.662;2022-08-19T12:38:37;100649.47;;;28.82;40.93
11648;BME280;5880;52.342;9.662;2022-08-19T12:41:05;100638.69;;;28.85;40.58
11648;BME280;5880;52.342;9.662;2022-08-19T12:43:32;100641.25;;;28.90;40.75
11648;BME280;5880;52.342;9.662;2022-08-19T12:45:59;100641.34;;;28.93;40.56
11648;BME280;5880;52.342;9.662;2022-08-19T12:48:24;100654.81;;;29.00;40.33
11648;BME280;5880;52.342;9.662;2022-08-19T12:50:50;100652.91;;;29.04;40.57
11648;BME280;5880;52.342;9.662;2022-08-19T12:53:16;100642.94;;;29.07;40.58
11648;BME280;5880;52.342;9.662;2022-08-19T12:55:42;100656.44;;;29.13;40.42
11648;BME280;5880;52.342;9.662;2022-08-19T12:58:11;100648.47;;;29.15;40.48
11648;BME280;5880;52.342;9.662;2022-08-19T13:00:37;100646.53;;;29.19;40.44
11648;BME280;5880;52.342;9.662;2022-08-19T13:03:03;100646.75;;;29.27;40.07
11648;BME280;5880;52.342;9.662;2022-08-19T13:05:32;100629.25;;;29.33;40.16
11648;BME280;5880;52.342;9.662;2022-08-19T13:07:59;100613.91;;;29.31;39.93
11648;BME280;5880;52.342;9.662;2022-08-19T13:10:33;100621.09;;;29.44;39.58
11648;BME280;5880;52.342;9.662;2022-08-19T13:13:03;100627.19;;;29.46;39.48
11648;BME280;5880;52.342;9.662;2022-08-19T13:15:29;100622.38;;;29.46;39.54
11648;BME280;5880;52.342;9.662;2022-08-19T13:17:58;100619.69;;;29.50;39.38